createdAt,value
2017-09-26T00:01:58.881Z,11.67
2017-09-26T00:04:25.459Z,10.50
2017-09-26T00:06:52.202Z,7.67
2017-09-26T00:09:18.777Z,9.80
2017-09-26T00:11:45.381Z,10.83
2017-09-26T00:14:11.961Z,12.90
2017-09-26T00:16:38.557Z,11.60
2017-09-26T00:19:05.301Z,10.40
2017-09-26T00:21:31.869Z,8.63
2017-09-26T00:23:58.457Z,13.00
2017-09-26T00:26:25.042Z,10.83
2017-09-26T00:28:51.614Z,12.33
2017-09-26T00:31:18.282Z,13.50
2017-09-26T00:33:44.841Z,12.10
2017-09-26T00:36:11.446Z,13.80
2017-09-26T00:38:38.029Z,11.80
2017-09-26T00:41:04.605Z,11.80
2017-09-26T00:43:31.213Z,10.80
2017-09-26T00:45:57.789Z,11.00
2017-09-26T00:48:24.374Z,9.07
2017-09-26T00:50:51.563Z,14.20
2017-09-26T00:53:18.135Z,13.80
2017-09-26T00:55:45.017Z,12.17
2017-09-26T00:58:11.589Z,13.80
2017-09-26T01:00:39.105Z,10.00
2017-09-26T01:03:05.697Z,11.43
2017-09-26T01:05:37.901Z,11.80
2017-09-26T01:08:04.814Z,13.60
2017-09-26T01:10:31.389Z,14.33
2017-09-26T01:12:57.966Z,15.60
2017-09-26T01:15:24.554Z,11.90
2017-09-26T01:17:51.126Z,13.43
2017-09-26T01:20:18.125Z,12.60
2017-09-26T01:22:44.704Z,16.13
2017-09-26T01:25:11.275Z,15.53
2017-09-26T01:27:37.860Z,12.00
2017-09-26T01:30:04.453Z,12.93
2017-09-26T01:32:31.050Z,14.10
2017-09-26T01:34:57.622Z,13.43
2017-09-26T01:37:24.202Z,15.17
2017-09-26T01:39:50.782Z,10.37
2017-09-26T01:42:17.391Z,17.53
2017-09-26T01:44:43.968Z,14.23
2017-09-26T01:47:10.550Z,14.20
2017-09-26T01:49:37.133Z,15.83
2017-09-26T01:52:03.820Z,18.77
2017-09-26T01:54:30.402Z,21.47
2017-09-26T01:57:14.860Z,21.87
2017-09-26T01:59:42.252Z,18.70
2017-09-26T02:02:08.833Z,20.70
2017-09-26T02:04:36.236Z,18.73
2017-09-26T02:07:02.815Z,20.17
2017-09-26T02:09:29.396Z,23.17
2017-09-26T02:11:56.163Z,19.30
2017-09-26T02:14:22.732Z,21.20
2017-09-26T02:16:49.312Z,20.97
2017-09-26T02:19:15.918Z,18.33
2017-09-26T02:21:42.497Z,20.47
2017-09-26T02:24:09.085Z,20.80
2017-09-26T02:26:35.673Z,18.10
2017-09-26T02:29:02.281Z,23.53
2017-09-26T02:31:29.232Z,21.77
2017-09-26T02:33:55.809Z,18.77
2017-09-26T02:36:22.394Z,19.03
2017-09-26T02:38:49.011Z,20.37
2017-09-26T02:41:15.588Z,19.93
2017-09-26T02:43:42.283Z,25.03
2017-09-26T02:46:08.888Z,23.80
2017-09-26T02:48:35.473Z,19.93
2017-09-26T02:51:02.067Z,21.77
2017-09-26T02:53:28.665Z,20.93
2017-09-26T02:55:55.353Z,21.80
2017-09-26T02:58:21.940Z,22.13
2017-09-26T03:00:48.525Z,21.70
2017-09-26T03:03:15.101Z,24.70
2017-09-26T03:05:41.680Z,26.67
2017-09-26T03:08:08.455Z,20.17
2017-09-26T03:10:35.012Z,24.73
2017-09-26T03:13:01.597Z,19.40
2017-09-26T03:15:28.185Z,23.90
2017-09-26T03:17:54.765Z,22.60
2017-09-26T03:20:21.834Z,24.70
2017-09-26T03:22:48.416Z,21.50
2017-09-26T03:25:15.045Z,23.73
2017-09-26T03:27:41.636Z,20.90
2017-09-26T03:30:08.218Z,21.57
2017-09-26T03:32:34.948Z,23.23
2017-09-26T03:35:01.525Z,23.07
2017-09-26T03:37:28.105Z,19.03
2017-09-26T03:39:54.684Z,21.40
2017-09-26T03:42:21.276Z,19.27
2017-09-26T03:44:48.188Z,20.57
2017-09-26T03:47:14.768Z,19.30
2017-09-26T03:49:41.349Z,20.80
2017-09-26T03:52:07.937Z,22.13
2017-09-26T03:54:34.517Z,23.10
2017-09-26T03:57:01.120Z,20.93
2017-09-26T03:59:27.696Z,20.53
2017-09-26T04:01:54.277Z,20.73
2017-09-26T04:04:20.856Z,19.50
2017-09-26T04:06:47.441Z,21.83
2017-09-26T04:09:14.181Z,23.27
2017-09-26T04:11:40.765Z,24.33
2017-09-26T04:14:07.341Z,22.83
2017-09-26T04:16:33.930Z,22.73
2017-09-26T04:19:00.517Z,21.40
2017-09-26T04:21:27.126Z,23.10
2017-09-26T04:23:53.708Z,23.60
2017-09-26T04:26:20.289Z,23.30
2017-09-26T04:28:46.873Z,25.50
2017-09-26T04:31:13.453Z,22.30
2017-09-26T04:33:40.188Z,22.73
2017-09-26T04:36:06.773Z,23.03
2017-09-26T04:38:33.353Z,22.20
2017-09-26T04:40:59.936Z,23.20
2017-09-26T04:43:26.517Z,25.43
2017-09-26T04:45:53.265Z,21.50
2017-09-26T04:48:19.849Z,23.30
2017-09-26T04:50:46.433Z,25.03
2017-09-26T04:53:13.025Z,23.30
2017-09-26T04:55:39.738Z,21.33
2017-09-26T04:58:06.422Z,24.80
2017-09-26T05:00:33.008Z,27.37
2017-09-26T05:02:59.621Z,24.90
2017-09-26T05:05:26.225Z,23.97
2017-09-26T05:07:52.820Z,24.90
2017-09-26T05:10:19.433Z,26.60
2017-09-26T05:12:46.049Z,32.57
2017-09-26T05:15:12.625Z,24.70
2017-09-26T05:17:39.213Z,24.83
2017-09-26T05:20:05.797Z,23.33
2017-09-26T05:22:32.544Z,25.00
2017-09-26T05:24:59.125Z,25.13
2017-09-26T05:27:25.709Z,24.10
2017-09-26T05:29:52.352Z,24.10
2017-09-26T05:32:18.933Z,21.90
2017-09-26T05:34:45.826Z,25.10
2017-09-26T05:37:12.413Z,20.60
2017-09-26T05:39:38.998Z,25.77
2017-09-26T05:42:05.593Z,26.33
2017-09-26T05:44:32.188Z,24.67
2017-09-26T05:46:58.817Z,23.03
2017-09-26T05:49:25.407Z,22.53
2017-09-26T05:51:51.993Z,26.27
2017-09-26T05:54:18.582Z,24.97
2017-09-26T05:56:45.164Z,25.80
2017-09-26T05:59:11.922Z,23.50
2017-09-26T06:01:38.501Z,35.20
2017-09-26T06:04:05.088Z,25.97
2017-09-26T06:06:31.701Z,23.27
2017-09-26T06:08:58.290Z,25.77
2017-09-26T06:11:24.910Z,25.73
2017-09-26T06:13:51.525Z,23.33
2017-09-26T06:16:18.108Z,25.23
2017-09-26T06:18:44.701Z,24.03
2017-09-26T06:21:11.328Z,29.13
2017-09-26T06:23:38.230Z,26.20
2017-09-26T06:26:04.821Z,25.63
2017-09-26T06:28:31.465Z,23.37
2017-09-26T06:30:58.036Z,24.00
2017-09-26T06:33:24.620Z,27.20
2017-09-26T06:35:51.427Z,26.40
2017-09-26T06:38:18.000Z,28.97
2017-09-26T06:40:44.585Z,31.67
2017-09-26T06:43:11.190Z,30.20
2017-09-26T06:45:37.761Z,29.43
2017-09-26T06:48:04.341Z,24.80
2017-09-26T06:50:30.932Z,28.43
2017-09-26T06:52:57.513Z,26.77
2017-09-26T06:55:24.101Z,25.70
2017-09-26T06:57:50.690Z,25.93
2017-09-26T07:00:17.294Z,27.83
2017-09-26T07:02:54.361Z,26.97
2017-09-26T07:05:20.950Z,30.40
2017-09-26T07:07:47.541Z,26.87
2017-09-26T07:10:14.166Z,26.67
2017-09-26T07:12:40.749Z,24.30
2017-09-26T07:15:07.466Z,24.70
2017-09-26T07:17:34.120Z,22.60
2017-09-26T07:20:00.709Z,21.97
2017-09-26T07:22:27.442Z,24.70
2017-09-26T07:24:54.059Z,24.00
2017-09-26T07:27:20.625Z,22.77
2017-09-26T07:29:47.497Z,24.23
2017-09-26T07:32:14.072Z,23.40
2017-09-26T07:34:40.657Z,24.90
2017-09-26T07:37:07.241Z,23.37
2017-09-26T07:39:33.821Z,24.17
2017-09-26T07:42:00.408Z,25.30
2017-09-26T07:44:26.990Z,22.83
2017-09-26T07:46:53.738Z,21.67
2017-09-26T07:49:20.309Z,23.47
2017-09-26T07:51:46.888Z,24.63
2017-09-26T07:54:13.476Z,23.27
2017-09-26T07:56:40.057Z,23.00
2017-09-26T07:59:07.042Z,21.80
2017-09-26T08:01:33.621Z,24.23
2017-09-26T08:04:00.414Z,26.37
2017-09-26T08:06:27.142Z,22.10
2017-09-26T08:08:53.858Z,20.17
2017-09-26T08:11:20.542Z,23.30
2017-09-26T08:13:47.128Z,22.53
2017-09-26T08:16:13.725Z,21.87
2017-09-26T08:18:40.326Z,21.40
2017-09-26T08:21:06.893Z,23.60
2017-09-26T08:23:33.594Z,22.50
2017-09-26T08:26:00.203Z,21.40
2017-09-26T08:28:26.780Z,20.27
2017-09-26T08:30:53.368Z,23.33
2017-09-26T08:33:19.950Z,21.80
2017-09-26T08:35:46.692Z,21.77
2017-09-26T08:38:13.279Z,19.87
2017-09-26T08:40:39.862Z,20.57
2017-09-26T08:43:06.448Z,22.17
2017-09-26T08:45:33.041Z,19.10
2017-09-26T08:47:59.735Z,21.53
2017-09-26T08:50:26.317Z,20.37
2017-09-26T08:52:53.012Z,19.47
2017-09-26T08:55:19.577Z,18.23
2017-09-26T08:57:46.158Z,19.63
2017-09-26T09:00:12.770Z,18.93
2017-09-26T09:02:39.357Z,18.43
2017-09-26T09:05:05.967Z,19.63
2017-09-26T09:07:32.541Z,17.37
2017-09-26T09:09:59.125Z,15.50
2017-09-26T09:12:25.727Z,15.87
2017-09-26T09:14:52.305Z,16.63
2017-09-26T09:17:18.889Z,13.87
2017-09-26T09:19:45.481Z,17.80
2017-09-26T09:22:12.070Z,19.60
2017-09-26T09:24:38.708Z,16.53
2017-09-26T09:27:05.317Z,13.80
2017-09-26T09:29:31.897Z,13.87
2017-09-26T09:31:58.479Z,12.47
2017-09-26T09:34:25.136Z,13.33
2017-09-26T09:36:51.904Z,12.73
2017-09-26T09:39:18.464Z,10.33
2017-09-26T09:41:45.060Z,10.47
2017-09-26T09:44:11.634Z,10.10
2017-09-26T09:46:38.215Z,8.63
2017-09-26T09:49:04.814Z,11.30
2017-09-26T09:51:31.389Z,10.17
2017-09-26T09:53:57.969Z,8.50
2017-09-26T09:56:24.545Z,9.20
2017-09-26T09:58:51.120Z,11.87
2017-09-26T10:01:18.019Z,11.07
2017-09-26T10:03:44.597Z,12.57
2017-09-26T10:06:11.181Z,12.67
2017-09-26T10:08:37.768Z,13.27
2017-09-26T10:11:04.345Z,11.00
2017-09-26T10:13:30.983Z,9.93
2017-09-26T10:15:57.659Z,12.53
2017-09-26T10:18:24.227Z,11.57
2017-09-26T10:20:50.813Z,10.67
2017-09-26T10:23:17.396Z,12.47
2017-09-26T10:25:44.009Z,9.67
2017-09-26T10:28:10.575Z,11.83
2017-09-26T10:30:37.151Z,9.40
2017-09-26T10:33:03.732Z,11.20
2017-09-26T10:35:30.300Z,9.27
2017-09-26T10:37:56.894Z,10.67
2017-09-26T10:40:24.437Z,11.93
2017-09-26T10:42:51.157Z,9.83
2017-09-26T10:45:17.728Z,9.70
2017-09-26T10:47:54.941Z,9.60
2017-09-26T10:50:21.517Z,9.80
2017-09-26T10:52:48.142Z,9.17
2017-09-26T10:55:25.208Z,9.40
2017-09-26T10:57:51.789Z,9.77
2017-09-26T11:00:18.404Z,8.97
2017-09-26T11:02:45.019Z,10.00
2017-09-26T11:05:11.589Z,8.10
2017-09-26T11:07:38.180Z,11.30
2017-09-26T11:10:04.758Z,9.90
2017-09-26T11:12:31.481Z,10.73
2017-09-26T11:14:58.065Z,8.57
2017-09-26T11:17:24.645Z,9.07
2017-09-26T11:19:51.240Z,8.90
2017-09-26T11:22:17.814Z,8.77
2017-09-26T11:24:44.505Z,10.73
2017-09-26T11:27:11.077Z,7.63
2017-09-26T11:29:37.652Z,8.00
2017-09-26T11:32:04.230Z,7.73
2017-09-26T11:34:31.033Z,8.37
2017-09-26T11:36:57.688Z,7.40
2017-09-26T11:39:24.256Z,7.13
2017-09-26T11:41:50.878Z,9.03
2017-09-26T11:44:17.462Z,7.10
2017-09-26T11:46:44.054Z,7.40
2017-09-26T11:49:10.916Z,10.80
2017-09-26T11:51:37.525Z,7.20
2017-09-26T11:54:04.128Z,8.20
2017-09-26T11:56:30.787Z,8.70
2017-09-26T11:58:57.365Z,7.00
2017-09-26T12:01:23.973Z,7.90
2017-09-26T12:03:50.577Z,8.57
2017-09-26T12:06:17.149Z,7.67
2017-09-26T12:08:43.733Z,8.87
2017-09-26T12:11:10.359Z,7.60
2017-09-26T12:13:42.881Z,6.97
2017-09-26T12:16:09.453Z,7.90
2017-09-26T12:18:36.029Z,7.73
2017-09-26T12:21:02.610Z,8.27
2017-09-26T12:23:29.191Z,7.10
2017-09-26T12:25:55.801Z,8.70
2017-09-26T12:28:22.354Z,7.90
2017-09-26T12:30:48.931Z,8.93
2017-09-26T12:33:15.514Z,12.13
2017-09-26T12:35:42.182Z,7.80
2017-09-26T12:38:09.064Z,7.47
2017-09-26T12:40:35.636Z,9.67
2017-09-26T12:43:02.294Z,8.47
2017-09-26T12:45:28.877Z,8.63
2017-09-26T12:47:55.453Z,9.10
2017-09-26T12:50:22.136Z,8.63
2017-09-26T12:52:48.705Z,7.27
2017-09-26T12:55:21.148Z,7.37
2017-09-26T12:57:47.733Z,9.97
2017-09-26T13:00:14.304Z,12.70
2017-09-26T13:02:40.885Z,7.10
2017-09-26T13:05:07.469Z,7.77
2017-09-26T13:07:34.208Z,6.80
2017-09-26T13:10:00.785Z,8.10
2017-09-26T13:12:27.357Z,6.97
2017-09-26T13:14:53.932Z,7.80
2017-09-26T13:17:20.514Z,8.50
2017-09-26T13:19:47.447Z,7.60
2017-09-26T13:22:14.040Z,6.60
2017-09-26T13:24:40.593Z,6.60
2017-09-26T13:27:07.168Z,6.83
2017-09-26T13:29:33.769Z,6.87
2017-09-26T13:32:00.389Z,7.67
2017-09-26T13:34:26.969Z,6.50
2017-09-26T13:36:53.658Z,6.00
2017-09-26T13:39:20.222Z,7.33
2017-09-26T13:41:46.904Z,7.73
2017-09-26T13:44:13.732Z,6.57
2017-09-26T13:46:40.305Z,7.50
2017-09-26T13:49:06.880Z,6.70
2017-09-26T13:51:33.520Z,6.57
2017-09-26T13:54:00.077Z,7.10
2017-09-26T13:56:26.720Z,6.93
2017-09-26T13:58:53.292Z,6.90
2017-09-26T14:01:19.861Z,7.23
2017-09-26T14:03:46.441Z,6.97
2017-09-26T14:06:13.012Z,7.93
2017-09-26T14:08:39.609Z,6.33
2017-09-26T14:11:06.189Z,7.23
2017-09-26T14:13:32.762Z,6.73
2017-09-26T14:15:59.349Z,7.50
2017-09-26T14:18:25.928Z,7.33
2017-09-26T14:20:52.513Z,7.07
2017-09-26T14:23:19.098Z,9.47
2017-09-26T14:25:45.670Z,8.37
2017-09-26T14:28:12.257Z,10.23
2017-09-26T14:30:38.840Z,7.73
2017-09-26T14:33:05.465Z,8.03
2017-09-26T14:35:32.028Z,7.20
2017-09-26T14:37:58.753Z,7.27
2017-09-26T14:40:25.329Z,6.93
2017-09-26T14:42:51.907Z,7.53
2017-09-26T14:45:18.489Z,7.90
2017-09-26T14:47:45.074Z,9.73
2017-09-26T14:50:11.808Z,11.10
2017-09-26T14:52:38.734Z,10.83
2017-09-26T14:55:05.304Z,9.83
2017-09-26T14:57:31.885Z,9.83
2017-09-26T14:59:58.467Z,7.00
2017-09-26T15:02:25.040Z,6.80
2017-09-26T15:04:51.625Z,7.87
2017-09-26T15:07:18.351Z,6.43
2017-09-26T15:09:44.942Z,6.60
2017-09-26T15:12:11.566Z,6.93
2017-09-26T15:14:38.137Z,7.13
2017-09-26T15:17:04.709Z,6.50
2017-09-26T15:19:31.442Z,7.50
2017-09-26T15:21:58.022Z,8.10
2017-09-26T15:24:24.621Z,5.70
2017-09-26T15:26:51.210Z,10.83
2017-09-26T15:29:17.788Z,10.23
2017-09-26T15:31:44.733Z,6.90
2017-09-26T15:34:11.341Z,5.93
2017-09-26T15:36:37.916Z,5.90
2017-09-26T15:39:04.520Z,5.90
2017-09-26T15:41:31.091Z,6.03
2017-09-26T15:43:57.674Z,5.43
2017-09-26T15:46:24.298Z,5.90
2017-09-26T15:48:50.861Z,4.83
2017-09-26T15:51:17.441Z,8.97
2017-09-26T15:53:44.016Z,5.10
2017-09-26T15:56:10.589Z,4.47
2017-09-26T15:58:37.165Z,5.57
2017-09-26T16:01:04.037Z,6.60
2017-09-26T16:03:30.621Z,4.03
2017-09-26T16:05:57.204Z,4.10
2017-09-26T16:08:23.785Z,4.40
2017-09-26T16:10:50.366Z,4.53
2017-09-26T16:13:17.107Z,4.00
2017-09-26T16:15:43.688Z,3.53
2017-09-26T16:18:10.257Z,4.43
2017-09-26T16:20:36.962Z,3.97
2017-09-26T16:23:11.999Z,3.80
2017-09-26T16:25:38.620Z,4.00
2017-09-26T16:28:05.196Z,4.23
2017-09-26T16:30:31.774Z,4.30
2017-09-26T16:32:58.350Z,4.00
2017-09-26T16:35:24.920Z,6.03
2017-09-26T16:37:51.517Z,3.83
2017-09-26T16:40:18.103Z,4.37
2017-09-26T16:42:44.725Z,4.20
2017-09-26T16:45:11.302Z,4.07
2017-09-26T16:47:37.990Z,4.17
2017-09-26T16:50:04.561Z,4.73
2017-09-26T16:52:31.134Z,4.93
2017-09-26T16:54:57.713Z,4.30
2017-09-26T16:57:24.288Z,5.00
2017-09-26T16:59:50.869Z,4.33
2017-09-26T17:02:17.448Z,5.17
2017-09-26T17:04:46.945Z,4.57
2017-09-26T17:07:13.524Z,4.50
2017-09-26T17:09:40.124Z,5.00
2017-09-26T17:12:06.692Z,4.60
2017-09-26T17:14:33.271Z,10.10
2017-09-26T17:17:00.014Z,6.40
2017-09-26T17:19:26.585Z,4.03
2017-09-26T17:21:53.166Z,5.47
2017-09-26T17:24:19.751Z,6.50
2017-09-26T17:26:46.321Z,8.53
2017-09-26T17:29:13.125Z,5.80
2017-09-26T17:31:39.698Z,6.70
2017-09-26T17:34:10.086Z,7.27
2017-09-26T17:39:20.474Z,8.43
2017-09-26T17:41:47.049Z,5.20
2017-09-26T17:44:13.645Z,7.17
2017-09-26T17:46:40.221Z,6.40
2017-09-26T17:49:06.809Z,5.00
2017-09-26T17:51:33.389Z,6.13
2017-09-26T17:53:59.973Z,8.40
2017-09-26T17:56:26.653Z,7.00
2017-09-26T17:58:53.233Z,4.70
2017-09-26T18:01:19.820Z,5.67
2017-09-26T18:03:46.389Z,9.30
2017-09-26T18:06:12.970Z,7.20
2017-09-26T18:08:39.549Z,6.13
2017-09-26T18:11:06.133Z,4.20
2017-09-26T18:13:32.745Z,6.83
2017-09-26T18:16:02.493Z,4.87
2017-09-26T18:18:29.079Z,9.00
2017-09-26T18:20:55.650Z,6.10
2017-09-26T18:23:22.228Z,8.60
2017-09-26T18:25:48.806Z,6.63
2017-09-26T18:28:15.386Z,5.23
2017-09-26T18:30:51.797Z,6.13
2017-09-26T18:33:18.378Z,5.17
2017-09-26T18:35:44.993Z,5.27
2017-09-26T18:38:11.569Z,4.90
2017-09-26T18:40:38.178Z,9.47
2017-09-26T18:43:04.771Z,4.63
2017-09-26T18:45:31.345Z,10.40
2017-09-26T18:47:57.949Z,10.32
2017-09-26T18:50:24.522Z,5.70
2017-09-26T18:52:51.094Z,5.50
2017-09-26T18:55:17.669Z,8.27
2017-09-26T18:57:44.253Z,6.73
2017-09-26T19:00:10.825Z,7.33
2017-09-26T19:02:37.409Z,4.70
2017-09-26T19:05:03.990Z,7.03
2017-09-26T19:07:30.574Z,6.30
2017-09-26T19:09:57.149Z,5.63
2017-09-26T19:12:23.726Z,5.03
2017-09-26T19:14:50.325Z,6.67
2017-09-26T19:17:16.906Z,6.20
2017-09-26T19:19:43.485Z,5.63
2017-09-26T19:22:10.110Z,9.80
2017-09-26T19:27:20.536Z,9.90
2017-09-26T19:29:47.124Z,5.40
2017-09-26T19:32:13.703Z,5.23
2017-09-26T19:37:26.090Z,13.80
2017-09-26T19:39:52.712Z,12.93
2017-09-26T19:42:19.302Z,14.10
2017-09-26T19:44:45.877Z,5.23
2017-09-26T19:47:12.480Z,5.30
2017-09-26T19:49:39.053Z,10.43
2017-09-26T19:52:05.625Z,8.60
2017-09-26T19:54:32.209Z,6.97
2017-09-26T19:56:58.798Z,8.73
2017-09-26T19:59:25.365Z,9.60
2017-09-26T20:01:51.981Z,10.77
2017-09-26T20:04:18.565Z,9.57
2017-09-26T20:06:45.150Z,8.70
2017-09-26T20:09:11.725Z,6.80
2017-09-26T20:11:38.314Z,7.50
2017-09-26T20:14:04.889Z,6.60
2017-09-26T20:16:31.477Z,8.97
2017-09-26T20:21:41.727Z,7.10
2017-09-26T20:24:08.307Z,8.00
2017-09-26T20:26:34.884Z,6.67
2017-09-26T20:29:01.873Z,7.03
2017-09-26T20:31:35.090Z,7.23
2017-09-26T20:34:01.689Z,7.60
2017-09-26T20:36:34.641Z,8.97
2017-09-26T20:39:01.229Z,13.40
2017-09-26T20:41:35.137Z,8.60
2017-09-26T20:44:05.142Z,9.30
2017-09-26T20:46:31.813Z,8.83
2017-09-26T20:48:58.743Z,7.97
2017-09-26T20:51:35.862Z,6.93
2017-09-26T20:54:02.453Z,8.40
2017-09-26T20:56:29.038Z,8.00
2017-09-26T20:58:55.613Z,7.10
2017-09-26T21:01:22.350Z,8.37
2017-09-26T21:03:48.939Z,13.30
2017-09-26T21:06:15.523Z,7.73
2017-09-26T21:08:42.410Z,10.90
2017-09-26T21:11:08.976Z,9.50
2017-09-26T21:13:35.545Z,8.57
2017-09-26T21:16:02.294Z,10.87
2017-09-26T21:18:28.872Z,8.83
2017-09-26T21:20:55.448Z,12.40
2017-09-26T21:23:22.048Z,7.83
2017-09-26T21:25:48.629Z,7.70
2017-09-26T21:28:15.207Z,8.20
2017-09-26T21:30:41.817Z,6.83
2017-09-26T21:33:08.389Z,8.87
2017-09-26T21:35:34.968Z,14.63
2017-09-26T21:38:01.702Z,6.60
2017-09-26T21:40:28.273Z,9.03
2017-09-26T21:42:54.849Z,9.20
2017-09-26T21:45:21.628Z,8.43
2017-09-26T21:47:48.206Z,8.60
2017-09-26T21:50:14.784Z,11.60
2017-09-26T21:52:41.369Z,7.10
2017-09-26T21:55:07.941Z,9.60
2017-09-26T21:57:34.512Z,7.83
2017-09-26T22:00:01.101Z,9.20
2017-09-26T22:02:27.697Z,7.10
2017-09-26T22:04:54.268Z,13.90
2017-09-26T22:07:21.013Z,11.23
2017-09-26T22:09:47.578Z,9.00
2017-09-26T22:12:14.156Z,10.43
2017-09-26T22:14:40.837Z,9.77
2017-09-26T22:17:07.413Z,8.90
2017-09-26T22:19:33.992Z,8.10
2017-09-26T22:22:00.625Z,9.30
2017-09-26T22:24:27.204Z,7.30
2017-09-26T22:26:53.784Z,7.43
2017-09-26T22:29:20.512Z,11.57
2017-09-26T22:31:47.093Z,10.53
2017-09-26T22:34:13.683Z,9.83
2017-09-26T22:36:40.277Z,7.63
2017-09-26T22:39:06.853Z,9.87
2017-09-26T22:41:33.440Z,8.73
2017-09-26T22:44:00.021Z,9.83
2017-09-26T22:46:26.604Z,9.33
2017-09-26T22:48:53.193Z,11.37
2017-09-26T22:51:19.913Z,8.73
2017-09-26T22:53:46.481Z,8.47
2017-09-26T22:56:13.057Z,8.40
2017-09-26T22:58:39.645Z,8.40
2017-09-26T23:01:06.216Z,9.33
2017-09-26T23:03:32.785Z,9.40
2017-09-26T23:05:59.389Z,11.43
2017-09-26T23:08:25.961Z,7.40
2017-09-26T23:10:52.531Z,7.80
2017-09-26T23:13:19.256Z,9.53
2017-09-26T23:15:45.823Z,7.50
2017-09-26T23:18:12.429Z,6.83
2017-09-26T23:20:38.997Z,9.50
2017-09-26T23:23:05.572Z,10.70
2017-09-26T23:25:32.141Z,9.93
2017-09-26T23:27:58.874Z,8.10
2017-09-26T23:30:25.446Z,9.20
2017-09-26T23:32:52.026Z,10.93
2017-09-26T23:35:18.680Z,8.40
2017-09-26T23:37:45.228Z,9.93
2017-09-26T23:40:11.815Z,11.03
2017-09-26T23:42:38.565Z,11.20
2017-09-26T23:45:05.144Z,13.67
2017-09-26T23:47:31.726Z,10.90
2017-09-26T23:49:58.559Z,9.47
2017-09-26T23:52:25.134Z,14.47
2017-09-26T23:54:51.698Z,15.43
2017-09-26T23:57:18.428Z,14.47
2017-09-26T23:59:45.005Z,14.30
